Opal — 9HA2265 — position and weather

sailwx.info

Track history (hours):
 
Tides and Currents Weather Stations Pressure Air Temp Water Temp Dewpoint Dewpoint Depression Visibility Wind Speed Wind Dir Waves Ship Positions

Opal

Last reported at 2018-Apr-21 02:13 UTC. Time now 2018-Apr-23 00:18 UTC.
Position N 53°32' E 003°02'.

Length 59 m; draft 4.2 m.

Type: Tug. MMSI: 248219000.

Date/timePositionNaut miles runAvg speedWind from/ knotsBaromVisibWave heightAir tempDewpointWater temp
2018-Apr-21 02:13N 53°32' E 003°02'64 8.5
2018-Apr-20 18:42N 52°30' E 002°41'210.6
2018-Apr-20 18:30N 52°28' E 002°41'710.8
2018-Apr-20 17:53N 52°21' E 002°41'35 9.6
2018-Apr-20 14:17N 51°47' E 002°40'3 9.1
2018-Apr-20 13:59N 51°45' E 002°38'4 8.7
2018-Apr-20 13:30N 51°42' E 002°33'4 8.2
2018-Apr-20 13:00N 51°38' E 002°29'4 7.8
2018-Apr-20 12:29N 51°35' E 002°25'4 7.5
2018-Apr-20 12:00N 51°32' E 002°21'4 7.1
2018-Apr-20 11:30N 51°30' E 002°17'4 7.0
2018-Apr-20 10:58N 51°28' E 002°12'3 6.9
2018-Apr-20 10:29N 51°26' E 002°07'3 7.0
2018-Apr-20 10:00N 51°24' E 002°03'4 7.0
2018-Apr-20 09:30N 51°21' E 001°59'4 7.4
2018-Apr-20 09:00N 51°19' E 001°56'4 7.6
2018-Apr-20 08:30N 51°16' E 001°52'4 7.9
2018-Apr-20 08:00N 51°12' E 001°48'4 8.1
2018-Apr-20 07:31N 51°09' E 001°44'4 8.7
2018-Apr-20 07:00N 51°05' E 001°41'5 9.4
2018-Apr-20 06:30N 51°02' E 001°36'5 9.7
2018-Apr-20 06:00N 50°58' E 001°32'510.3
2018-Apr-20 05:29N 50°53' E 001°27'710.6
2018-Apr-20 04:51N 50°47' E 001°23'410.5
2018-Apr-20 04:29N 50°43' E 001°22'5 9.8
2018-Apr-20 04:00N 50°39' E 001°19'1310.0
2018-Apr-20 02:45N 50°31' E 001°03'4 9.8
2018-Apr-20 02:22N 50°30' E 000°58'2910.7
2018-Apr-19 23:40N 50°20' E 000°15'312.0
2018-Apr-19 23:26N 50°19' E 000°11'512.1
2018-Apr-19 22:59N 50°18' E 000°03'712.0
2018-Apr-19 22:25N 50°15' W 000°07'511.8
2018-Apr-19 21:58N 50°14' W 000°15'511.8
2018-Apr-19 21:30N 50°12' W 000°23'611.5
2018-Apr-19 21:00N 50°11' W 000°32'611.1
2018-Apr-19 20:30N 50°09' W 000°40'510.2
2018-Apr-19 20:00N 50°09' W 000°48'5 9.7
2018-Apr-19 19:29N 50°08' W 000°56'4 8.9
2018-Apr-19 19:00N 50°07' W 001°02'4 8.1
2018-Apr-19 18:30N 50°07' W 001°09'4 7.4
2018-Apr-19 18:00N 50°06' W 001°14'3 6.9
2018-Apr-19 17:30N 50°04' W 001°19'3 6.0
2018-Apr-19 17:00N 50°03' W 001°24'3 5.7
2018-Apr-19 16:30N 50°03' W 001°28'3 5.4
2018-Apr-19 16:00N 50°02' W 001°32'3 5.4
2018-Apr-19 15:30N 50°01' W 001°36'3 5.8
2018-Apr-19 15:00N 50°00' W 001°40'3 6.4
2018-Apr-19 14:30N 49°60' W 001°45'4 7.2
2018-Apr-19 14:00N 49°59' W 001°50'4 8.0
2018-Apr-19 13:30N 49°58' W 001°56'5 9.0
2018-Apr-19 13:00N 49°56' W 002°03'510.1
2018-Apr-19 12:30N 49°55' W 002°11'510.7
2018-Apr-19 12:00N 49°54' W 002°19'611.1
2018-Apr-19 11:28N 49°52' W 002°28'511.3
2018-Apr-19 11:00N 49°51' W 002°36'611.3
2018-Apr-19 10:30N 49°49' W 002°44'611.3
2018-Apr-19 10:00N 49°47' W 002°52'911.2
2018-Apr-19 09:11N 49°43' W 003°05'511.2
2018-Apr-19 08:44N 49°40' W 003°12'311.1
2018-Apr-19 08:30N 49°39' W 003°15'1111.1
2018-Apr-19 07:28N 49°34' W 003°31'511.1
2018-Apr-19 07:00N 49°31' W 003°38'2210.7
2018-Apr-19 04:58N 49°20' W 004°07'11 9.9
2018-Apr-19 03:53N 49°15' W 004°21'7 9.4
2018-Apr-19 03:10N 49°12' W 004°30'2 9.0
2018-Apr-19 02:56N 49°11' W 004°33'6 8.6
2018-Apr-19 02:17N 49°08' W 004°41'6 8.0
2018-Apr-19 01:28N 49°05' W 004°49'35 7.4
2018-Apr-18 20:43N 48°47' W 005°35'  
2018-Apr-14 20:27N 39°26' W 009°56'2 4.9
2018-Apr-14 19:59N 39°23' W 009°56'4 5.2
2018-Apr-14 19:16N 39°19' W 009°57'2 6.3
2018-Apr-14 18:58N 39°17' W 009°57'3 6.7
2018-Apr-14 18:28N 39°14' W 009°56'3 6.4
2018-Apr-14 18:00N 39°11' W 009°55'3 6.4
2018-Apr-14 17:30N 39°08' W 009°55'3 6.3
2018-Apr-14 17:00N 39°05' W 009°54'3 6.4
2018-Apr-14 16:30N 39°02' W 009°53'3 6.4
2018-Apr-14 16:00N 38°59' W 009°52'3 6.6
2018-Apr-14 15:30N 38°56' W 009°52'3 6.5
2018-Apr-14 15:00N 38°52' W 009°51'3 6.6
2018-Apr-14 14:30N 38°49' W 009°51'3 6.6
2018-Apr-14 14:00N 38°46' W 009°51'3 6.5
2018-Apr-14 13:29N 38°42' W 009°50'3 6.4
2018-Apr-14 13:00N 38°39' W 009°49'3 5.6
2018-Apr-14 12:30N 38°37' W 009°47'3 6.0
2018-Apr-14 12:00N 38°36' W 009°43'3 6.1
2018-Apr-14 11:30N 38°36' W 009°39'3 6.0
2018-Apr-14 11:00N 38°36' W 009°35'3 6.0
2018-Apr-14 10:30N 38°36' W 009°31'3 6.2
2018-Apr-14 10:00N 38°36' W 009°27'3 6.8
2018-Apr-14 09:31N 38°37' W 009°23'3 6.7
2018-Apr-14 09:00N 38°39' W 009°20'3 6.0
2018-Apr-14 08:30N 38°41' W 009°17'2 4.6
2018-Apr-14 08:00N 38°41' W 009°14'3 5.4
2018-Apr-14 07:30N 38°42' W 009°11'0 0.8
2018-Apr-14 06:59N 38°42' W 009°10'0 0.0
2018-Apr-14 06:21N 38°42' W 009°10'0 0.0
2018-Apr-14 05:59N 38°42' W 009°10'0 0.0
2018-Apr-14 05:29N 38°42' W 009°10'0 0.0
2018-Apr-14 04:17N 38°42' W 009°10'0 0.0
2018-Apr-14 03:56N 38°42' W 009°10'0 0.0
2018-Apr-14 03:29N 38°42' W 009°10'0 0.0
2018-Apr-14 02:50N 38°42' W 009°10'0 0.0
2018-Apr-14 02:29N 38°42' W 009°10'0 0.0
2018-Apr-14 02:00N 38°42' W 009°10'0 0.0
2018-Apr-14 01:30N 38°42' W 009°10'0 0.0
2018-Apr-14 00:57N 38°42' W 009°10'0 0.0
2018-Apr-14 00:29N 38°42' W 009°10'0 0.0
2018-Apr-13 23:53N 38°42' W 009°10'0 0.0
2018-Apr-13 23:11N 38°42' W 009°10'0 0.0
2018-Apr-13 22:47N 38°42' W 009°10'0 0.0
2018-Apr-13 21:53N 38°42' W 009°10'0 0.0
2018-Apr-13 21:26N 38°42' W 009°10'0 0.0
2018-Apr-13 20:32N 38°42' W 009°10'0 0.1
2018-Apr-13 20:29N 38°42' W 009°10'0 0.0
2018-Apr-13 19:41N 38°42' W 009°10'0 0.0
2018-Apr-13 19:29N 38°42' W 009°10'0 0.0
2018-Apr-13 18:56N 38°42' W 009°10'0 0.0
2018-Apr-13 18:26N 38°42' W 009°10'0 0.0
2018-Apr-13 17:59N 38°42' W 009°10'0 0.0
2018-Apr-13 17:26N 38°42' W 009°10'0 0.0
2018-Apr-13 16:59N 38°42' W 009°10'0 0.0
2018-Apr-13 16:29N 38°42' W 009°10'0 0.0
2018-Apr-13 15:47N 38°42' W 009°10'0 0.0
2018-Apr-13 15:14N 38°42' W 009°10'0 0.0
2018-Apr-13 14:38N 38°42' W 009°10'0 0.0
2018-Apr-13 14:17N 38°42' W 009°10'0 0.0
2018-Apr-13 12:47N 38°42' W 009°10'0 0.1
2018-Apr-13 12:26N 38°42' W 009°10'0 0.3
2018-Apr-13 11:47N 38°42' W 009°10'0 1.5
2018-Apr-13 11:28N 38°42' W 009°10'0 0.0
2018-Apr-13 10:58N 38°42' W 009°10'0 0.0
2018-Apr-13 10:25N 38°42' W 009°10'0 0.0
2018-Apr-13 09:10N 38°42' W 009°10'0 0.0
2018-Apr-13 08:58N 38°42' W 009°10'0 0.0
2018-Apr-13 08:19N 38°42' W 009°10'0 0.0
2018-Apr-13 07:55N 38°42' W 009°10'0 0.0
2018-Apr-13 07:25N 38°42' W 009°10'0 0.0
2018-Apr-13 06:58N 38°42' W 009°10'0 0.0
2018-Apr-13 06:28N 38°42' W 009°10'0 0.0
2018-Apr-13 05:43N 38°42' W 009°10'0 0.0
2018-Apr-13 05:28N 38°42' W 009°10'0 0.0
2018-Apr-13 04:58N 38°42' W 009°10'0 0.0
2018-Apr-13 04:22N 38°42' W 009°10'0 0.0
2018-Apr-13 03:46N 38°42' W 009°10'0 0.0
2018-Apr-13 03:28N 38°42' W 009°10'0 0.0
2018-Apr-13 02:52N 38°42' W 009°10'0 0.0
2018-Apr-13 02:25N 38°42' W 009°10'0 0.0
2018-Apr-13 01:58N 38°42' W 009°10'0 0.0
2018-Apr-13 01:28N 38°42' W 009°10'0 0.0
2018-Apr-13 00:46N 38°42' W 009°10'0 0.0
2018-Apr-13 00:28N 38°42' W 009°10'0 0.0
2018-Apr-12 23:46N 38°42' W 009°10'0 0.0
2018-Apr-12 23:22N 38°42' W 009°10'0 0.0
2018-Apr-12 22:52N 38°42' W 009°10'0 0.0
2018-Apr-12 22:28N 38°42' W 009°10'0 0.0
2018-Apr-12 21:55N 38°42' W 009°10'0 0.0
2018-Apr-12 21:28N 38°42' W 009°10'0 0.0
2018-Apr-12 20:58N 38°42' W 009°10'0 0.0
2018-Apr-12 20:22N 38°42' W 009°10'0 0.0
2018-Apr-12 19:58N 38°42' W 009°10'0 0.0
2018-Apr-12 19:28N 38°42' W 009°10'0 0.0
2018-Apr-12 18:58N 38°42' W 009°10'0 0.0
2018-Apr-12 18:19N 38°42' W 009°10'0 0.0
2018-Apr-12 17:58N 38°42' W 009°10'0 0.0
2018-Apr-12 17:28N 38°42' W 009°10'0 0.0
2018-Apr-12 16:58N 38°42' W 009°10'0 0.0
2018-Apr-12 16:22N 38°42' W 009°10'0 0.0
2018-Apr-12 15:55N 38°42' W 009°10'0 0.0
2018-Apr-12 15:28N 38°42' W 009°10'0 0.0
2018-Apr-12 14:58N 38°42' W 009°10'0 0.0
2018-Apr-12 14:22N 38°42' W 009°10'0 0.0
2018-Apr-12 13:49N 38°42' W 009°10'0 0.0
2018-Apr-12 13:19N 38°42' W 009°10'0 0.0
2018-Apr-12 12:28N 38°42' W 009°10'0 0.0
2018-Apr-12 11:52N 38°42' W 009°10'0 0.0
2018-Apr-12 11:25N 38°42' W 009°10'0 0.0
2018-Apr-12 10:46N 38°42' W 009°10'0 0.0
2018-Apr-12 10:28N 38°42' W 009°10'0 0.0
2018-Apr-12 09:46N 38°42' W 009°10'0 0.0
2018-Apr-12 09:25N 38°42' W 009°10'0 0.0
2018-Apr-12 08:52N 38°42' W 009°10'0 0.0
2018-Apr-12 08:28N 38°42' W 009°10'0 0.0
2018-Apr-12 07:46N 38°42' W 009°10'0 0.0
2018-Apr-12 07:22N 38°42' W 009°10'0 0.0
2018-Apr-12 06:58N 38°42' W 009°10'0 0.0
2018-Apr-12 06:22N 38°42' W 009°10'0 0.0
2018-Apr-12 05:49N 38°42' W 009°10'0 0.0
2018-Apr-12 05:28N 38°42' W 009°10'0 0.0
2018-Apr-12 04:55N 38°42' W 009°10'0 0.0
2018-Apr-12 04:25N 38°42' W 009°10'0 0.0
2018-Apr-12 03:58N 38°42' W 009°10'0 0.0
2018-Apr-12 03:28N 38°42' W 009°10'0 0.0
2018-Apr-12 02:49N 38°42' W 009°10'0 0.0
2018-Apr-12 01:58N 38°42' W 009°10'0 0.0
2018-Apr-12 01:22N 38°42' W 009°10'0 0.0
2018-Apr-12 00:40N 38°42' W 009°10'0 0.0
2018-Apr-12 00:22N 38°42' W 009°10'0 0.0
2018-Apr-11 23:46N 38°42' W 009°10'0 0.0
2018-Apr-11 23:28N 38°42' W 009°10'0 0.0
2018-Apr-11 21:04N 38°42' W 009°10'0 0.0
2018-Apr-11 20:55N 38°42' W 009°10'0 0.0
2018-Apr-11 20:13N 38°42' W 009°10'0 0.0
2018-Apr-11 19:58N 38°42' W 009°10'0 0.0
2018-Apr-11 19:28N 38°42' W 009°10'0 0.0
2018-Apr-11 18:40N 38°42' W 009°10'0 0.0
2018-Apr-11 18:25N 38°42' W 009°10'0 0.0
2018-Apr-11 17:58N 38°42' W 009°10'0 0.0
2018-Apr-11 17:22N 38°42' W 009°10'0 0.0
2018-Apr-11 16:55N 38°42' W 009°10'0 0.0
2018-Apr-11 16:16N 38°42' W 009°10'0 0.0
2018-Apr-11 15:58N 38°42' W 009°10'0 0.0
2018-Apr-11 14:43N 38°42' W 009°10'0 0.0
2018-Apr-11 13:40N 38°42' W 009°10'0 0.0
2018-Apr-11 13:19N 38°42' W 009°10'0 0.0
2018-Apr-11 12:52N 38°42' W 009°10'0 0.0
2018-Apr-11 12:22N 38°42' W 009°10'0 0.0
2018-Apr-11 11:46N 38°42' W 009°10'0 0.0
2018-Apr-11 10:34N 38°42' W 009°10'0 0.0
2018-Apr-11 10:28N 38°42' W 009°10'0 0.0
2018-Apr-11 09:58N 38°42' W 009°10'0 0.0
2018-Apr-11 09:16N 38°42' W 009°10'0 0.0
2018-Apr-11 08:58N 38°42' W 009°10'0 0.0
2018-Apr-11 08:28N 38°42' W 009°10'0 0.0
2018-Apr-11 07:58N 38°42' W 009°10'0 0.0
2018-Apr-11 07:28N 38°42' W 009°10'0 0.0
2018-Apr-11 06:58N 38°42' W 009°10'0 0.0
2018-Apr-11 06:28N 38°42' W 009°10'0 0.0
2018-Apr-11 05:58N 38°42' W 009°10'0 0.0
2018-Apr-11 05:28N 38°42' W 009°10'0 0.0
2018-Apr-11 04:58N 38°42' W 009°10'0 0.0
2018-Apr-11 04:28N 38°42' W 009°10'0 0.0
2018-Apr-11 03:52N 38°42' W 009°10'0 0.0
2018-Apr-11 03:28N 38°42' W 009°10'0 0.0
2018-Apr-11 02:58N 38°42' W 009°10'0 0.0
2018-Apr-11 02:28N 38°42' W 009°10'  
Track history (hours):
 
Tides and Currents Weather Stations Pressure Air Temp Water Temp Dewpoint Dewpoint Depression Visibility Wind Speed Wind Dir Waves Ship Positions

Opal

Last reported at 2018-Apr-21 02:13 UTC. Time now 2018-Apr-23 00:18 UTC.
Position N 53°32' E 003°02'.

Length 59 m; draft 4.2 m.

Type: Tug. MMSI: 248219000.

Date/timePositionNaut miles runAvg speedWind from/ knotsBaromVisibWave heightAir tempDewpointWater temp
2018-Apr-21 02:13N 53°32' E 003°02'64 8.5
2018-Apr-20 18:42N 52°30' E 002°41'210.6
2018-Apr-20 18:30N 52°28' E 002°41'710.8
2018-Apr-20 17:53N 52°21' E 002°41'35 9.6
2018-Apr-20 14:17N 51°47' E 002°40'3 9.1
2018-Apr-20 13:59N 51°45' E 002°38'4 8.7
2018-Apr-20 13:30N 51°42' E 002°33'4 8.2
2018-Apr-20 13:00N 51°38' E 002°29'4 7.8
2018-Apr-20 12:29N 51°35' E 002°25'4 7.5
2018-Apr-20 12:00N 51°32' E 002°21'4 7.1
2018-Apr-20 11:30N 51°30' E 002°17'4 7.0
2018-Apr-20 10:58N 51°28' E 002°12'3 6.9
2018-Apr-20 10:29N 51°26' E 002°07'3 7.0
2018-Apr-20 10:00N 51°24' E 002°03'4 7.0
2018-Apr-20 09:30N 51°21' E 001°59'4 7.4
2018-Apr-20 09:00N 51°19' E 001°56'4 7.6
2018-Apr-20 08:30N 51°16' E 001°52'4 7.9
2018-Apr-20 08:00N 51°12' E 001°48'4 8.1
2018-Apr-20 07:31N 51°09' E 001°44'4 8.7
2018-Apr-20 07:00N 51°05' E 001°41'5 9.4
2018-Apr-20 06:30N 51°02' E 001°36'5 9.7
2018-Apr-20 06:00N 50°58' E 001°32'510.3
2018-Apr-20 05:29N 50°53' E 001°27'710.6
2018-Apr-20 04:51N 50°47' E 001°23'410.5
2018-Apr-20 04:29N 50°43' E 001°22'5 9.8
2018-Apr-20 04:00N 50°39' E 001°19'1310.0
2018-Apr-20 02:45N 50°31' E 001°03'4 9.8
2018-Apr-20 02:22N 50°30' E 000°58'2910.7
2018-Apr-19 23:40N 50°20' E 000°15'312.0
2018-Apr-19 23:26N 50°19' E 000°11'512.1
2018-Apr-19 22:59N 50°18' E 000°03'712.0
2018-Apr-19 22:25N 50°15' W 000°07'511.8
2018-Apr-19 21:58N 50°14' W 000°15'511.8
2018-Apr-19 21:30N 50°12' W 000°23'611.5
2018-Apr-19 21:00N 50°11' W 000°32'611.1
2018-Apr-19 20:30N 50°09' W 000°40'510.2
2018-Apr-19 20:00N 50°09' W 000°48'5 9.7
2018-Apr-19 19:29N 50°08' W 000°56'4 8.9
2018-Apr-19 19:00N 50°07' W 001°02'4 8.1
2018-Apr-19 18:30N 50°07' W 001°09'4 7.4
2018-Apr-19 18:00N 50°06' W 001°14'3 6.9
2018-Apr-19 17:30N 50°04' W 001°19'3 6.0
2018-Apr-19 17:00N 50°03' W 001°24'3 5.7
2018-Apr-19 16:30N 50°03' W 001°28'3 5.4
2018-Apr-19 16:00N 50°02' W 001°32'3 5.4
2018-Apr-19 15:30N 50°01' W 001°36'3 5.8
2018-Apr-19 15:00N 50°00' W 001°40'3 6.4
2018-Apr-19 14:30N 49°60' W 001°45'4 7.2
2018-Apr-19 14:00N 49°59' W 001°50'4 8.0
2018-Apr-19 13:30N 49°58' W 001°56'5 9.0
2018-Apr-19 13:00N 49°56' W 002°03'510.1
2018-Apr-19 12:30N 49°55' W 002°11'510.7
2018-Apr-19 12:00N 49°54' W 002°19'611.1
2018-Apr-19 11:28N 49°52' W 002°28'511.3
2018-Apr-19 11:00N 49°51' W 002°36'611.3
2018-Apr-19 10:30N 49°49' W 002°44'611.3
2018-Apr-19 10:00N 49°47' W 002°52'911.2
2018-Apr-19 09:11N 49°43' W 003°05'511.2
2018-Apr-19 08:44N 49°40' W 003°12'311.1
2018-Apr-19 08:30N 49°39' W 003°15'1111.1
2018-Apr-19 07:28N 49°34' W 003°31'511.1
2018-Apr-19 07:00N 49°31' W 003°38'2210.7
2018-Apr-19 04:58N 49°20' W 004°07'11 9.9
2018-Apr-19 03:53N 49°15' W 004°21'7 9.4
2018-Apr-19 03:10N 49°12' W 004°30'2 9.0
2018-Apr-19 02:56N 49°11' W 004°33'6 8.6
2018-Apr-19 02:17N 49°08' W 004°41'6 8.0
2018-Apr-19 01:28N 49°05' W 004°49'35 7.4
2018-Apr-18 20:43N 48°47' W 005°35'  
2018-Apr-14 20:27N 39°26' W 009°56'2 4.9
2018-Apr-14 19:59N 39°23' W 009°56'4 5.2
2018-Apr-14 19:16N 39°19' W 009°57'2 6.3
2018-Apr-14 18:58N 39°17' W 009°57'3 6.7
2018-Apr-14 18:28N 39°14' W 009°56'3 6.4
2018-Apr-14 18:00N 39°11' W 009°55'3 6.4
2018-Apr-14 17:30N 39°08' W 009°55'3 6.3
2018-Apr-14 17:00N 39°05' W 009°54'3 6.4
2018-Apr-14 16:30N 39°02' W 009°53'3 6.4
2018-Apr-14 16:00N 38°59' W 009°52'3 6.6
2018-Apr-14 15:30N 38°56' W 009°52'3 6.5
2018-Apr-14 15:00N 38°52' W 009°51'3 6.6
2018-Apr-14 14:30N 38°49' W 009°51'3 6.6
2018-Apr-14 14:00N 38°46' W 009°51'3 6.5
2018-Apr-14 13:29N 38°42' W 009°50'3 6.4
2018-Apr-14 13:00N 38°39' W 009°49'3 5.6
2018-Apr-14 12:30N 38°37' W 009°47'3 6.0
2018-Apr-14 12:00N 38°36' W 009°43'3 6.1
2018-Apr-14 11:30N 38°36' W 009°39'3 6.0
2018-Apr-14 11:00N 38°36' W 009°35'3 6.0
2018-Apr-14 10:30N 38°36' W 009°31'3 6.2
2018-Apr-14 10:00N 38°36' W 009°27'3 6.8
2018-Apr-14 09:31N 38°37' W 009°23'3 6.7
2018-Apr-14 09:00N 38°39' W 009°20'3 6.0
2018-Apr-14 08:30N 38°41' W 009°17'2 4.6
2018-Apr-14 08:00N 38°41' W 009°14'3 5.4
2018-Apr-14 07:30N 38°42' W 009°11'0 0.8
2018-Apr-14 06:59N 38°42' W 009°10'0 0.0
2018-Apr-14 06:21N 38°42' W 009°10'0 0.0
2018-Apr-14 05:59N 38°42' W 009°10'0 0.0
2018-Apr-14 05:29N 38°42' W 009°10'0 0.0
2018-Apr-14 04:17N 38°42' W 009°10'0 0.0
2018-Apr-14 03:56N 38°42' W 009°10'0 0.0
2018-Apr-14 03:29N 38°42' W 009°10'0 0.0
2018-Apr-14 02:50N 38°42' W 009°10'0 0.0
2018-Apr-14 02:29N 38°42' W 009°10'0 0.0
2018-Apr-14 02:00N 38°42' W 009°10'0 0.0
2018-Apr-14 01:30N 38°42' W 009°10'0 0.0
2018-Apr-14 00:57N 38°42' W 009°10'0 0.0
2018-Apr-14 00:29N 38°42' W 009°10'0 0.0
2018-Apr-13 23:53N 38°42' W 009°10'0 0.0
2018-Apr-13 23:11N 38°42' W 009°10'0 0.0
2018-Apr-13 22:47N 38°42' W 009°10'0 0.0
2018-Apr-13 21:53N 38°42' W 009°10'0 0.0
2018-Apr-13 21:26N 38°42' W 009°10'0 0.0
2018-Apr-13 20:32N 38°42' W 009°10'0 0.1
2018-Apr-13 20:29N 38°42' W 009°10'0 0.0
2018-Apr-13 19:41N 38°42' W 009°10'0 0.0
2018-Apr-13 19:29N 38°42' W 009°10'0 0.0
2018-Apr-13 18:56N 38°42' W 009°10'0 0.0
2018-Apr-13 18:26N 38°42' W 009°10'0 0.0
2018-Apr-13 17:59N 38°42' W 009°10'0 0.0
2018-Apr-13 17:26N 38°42' W 009°10'0 0.0
2018-Apr-13 16:59N 38°42' W 009°10'0 0.0
2018-Apr-13 16:29N 38°42' W 009°10'0 0.0
2018-Apr-13 15:47N 38°42' W 009°10'0 0.0
2018-Apr-13 15:14N 38°42' W 009°10'0 0.0
2018-Apr-13 14:38N 38°42' W 009°10'0 0.0
2018-Apr-13 14:17N 38°42' W 009°10'0 0.0
2018-Apr-13 12:47N 38°42' W 009°10'0 0.1
2018-Apr-13 12:26N 38°42' W 009°10'0 0.3
2018-Apr-13 11:47N 38°42' W 009°10'0 1.5
2018-Apr-13 11:28N 38°42' W 009°10'0 0.0
2018-Apr-13 10:58N 38°42' W 009°10'0 0.0
2018-Apr-13 10:25N 38°42' W 009°10'0 0.0
2018-Apr-13 09:10N 38°42' W 009°10'0 0.0
2018-Apr-13 08:58N 38°42' W 009°10'0 0.0
2018-Apr-13 08:19N 38°42' W 009°10'0 0.0
2018-Apr-13 07:55N 38°42' W 009°10'0 0.0
2018-Apr-13 07:25N 38°42' W 009°10'0 0.0
2018-Apr-13 06:58N 38°42' W 009°10'0 0.0
2018-Apr-13 06:28N 38°42' W 009°10'0 0.0
2018-Apr-13 05:43N 38°42' W 009°10'0 0.0
2018-Apr-13 05:28N 38°42' W 009°10'0 0.0
2018-Apr-13 04:58N 38°42' W 009°10'0 0.0
2018-Apr-13 04:22N 38°42' W 009°10'0 0.0
2018-Apr-13 03:46N 38°42' W 009°10'0 0.0
2018-Apr-13 03:28N 38°42' W 009°10'0 0.0
2018-Apr-13 02:52N 38°42' W 009°10'0 0.0
2018-Apr-13 02:25N 38°42' W 009°10'0 0.0
2018-Apr-13 01:58N 38°42' W 009°10'0 0.0
2018-Apr-13 01:28N 38°42' W 009°10'0 0.0
2018-Apr-13 00:46N 38°42' W 009°10'0 0.0
2018-Apr-13 00:28N 38°42' W 009°10'0 0.0
2018-Apr-12 23:46N 38°42' W 009°10'0 0.0
2018-Apr-12 23:22N 38°42' W 009°10'0 0.0
2018-Apr-12 22:52N 38°42' W 009°10'0 0.0
2018-Apr-12 22:28N 38°42' W 009°10'0 0.0
2018-Apr-12 21:55N 38°42' W 009°10'0 0.0
2018-Apr-12 21:28N 38°42' W 009°10'0 0.0
2018-Apr-12 20:58N 38°42' W 009°10'0 0.0
2018-Apr-12 20:22N 38°42' W 009°10'0 0.0
2018-Apr-12 19:58N 38°42' W 009°10'0 0.0
2018-Apr-12 19:28N 38°42' W 009°10'0 0.0
2018-Apr-12 18:58N 38°42' W 009°10'0 0.0
2018-Apr-12 18:19N 38°42' W 009°10'0 0.0
2018-Apr-12 17:58N 38°42' W 009°10'0 0.0
2018-Apr-12 17:28N 38°42' W 009°10'0 0.0
2018-Apr-12 16:58N 38°42' W 009°10'0 0.0
2018-Apr-12 16:22N 38°42' W 009°10'0 0.0
2018-Apr-12 15:55N 38°42' W 009°10'0 0.0
2018-Apr-12 15:28N 38°42' W 009°10'0 0.0
2018-Apr-12 14:58N 38°42' W 009°10'0 0.0
2018-Apr-12 14:22N 38°42' W 009°10'0 0.0
2018-Apr-12 13:49N 38°42' W 009°10'0 0.0
2018-Apr-12 13:19N 38°42' W 009°10'0 0.0
2018-Apr-12 12:28N 38°42' W 009°10'0 0.0
2018-Apr-12 11:52N 38°42' W 009°10'0 0.0
2018-Apr-12 11:25N 38°42' W 009°10'0 0.0
2018-Apr-12 10:46N 38°42' W 009°10'0 0.0
2018-Apr-12 10:28N 38°42' W 009°10'0 0.0
2018-Apr-12 09:46N 38°42' W 009°10'0 0.0
2018-Apr-12 09:25N 38°42' W 009°10'0 0.0
2018-Apr-12 08:52N 38°42' W 009°10'0 0.0
2018-Apr-12 08:28N 38°42' W 009°10'0 0.0
2018-Apr-12 07:46N 38°42' W 009°10'0 0.0
2018-Apr-12 07:22N 38°42' W 009°10'0 0.0
2018-Apr-12 06:58N 38°42' W 009°10'0 0.0
2018-Apr-12 06:22N 38°42' W 009°10'0 0.0
2018-Apr-12 05:49N 38°42' W 009°10'0 0.0
2018-Apr-12 05:28N 38°42' W 009°10'0 0.0
2018-Apr-12 04:55N 38°42' W 009°10'0 0.0
2018-Apr-12 04:25N 38°42' W 009°10'0 0.0
2018-Apr-12 03:58N 38°42' W 009°10'0 0.0
2018-Apr-12 03:28N 38°42' W 009°10'0 0.0
2018-Apr-12 02:49N 38°42' W 009°10'0 0.0
2018-Apr-12 01:58N 38°42' W 009°10'0 0.0
2018-Apr-12 01:22N 38°42' W 009°10'0 0.0
2018-Apr-12 00:40N 38°42' W 009°10'0 0.0
2018-Apr-12 00:22N 38°42' W 009°10'0 0.0
2018-Apr-11 23:46N 38°42' W 009°10'0 0.0
2018-Apr-11 23:28N 38°42' W 009°10'0 0.0
2018-Apr-11 21:04N 38°42' W 009°10'0 0.0
2018-Apr-11 20:55N 38°42' W 009°10'0 0.0
2018-Apr-11 20:13N 38°42' W 009°10'0 0.0
2018-Apr-11 19:58N 38°42' W 009°10'0 0.0
2018-Apr-11 19:28N 38°42' W 009°10'0 0.0
2018-Apr-11 18:40N 38°42' W 009°10'0 0.0
2018-Apr-11 18:25N 38°42' W 009°10'0 0.0
2018-Apr-11 17:58N 38°42' W 009°10'0 0.0
2018-Apr-11 17:22N 38°42' W 009°10'0 0.0
2018-Apr-11 16:55N 38°42' W 009°10'0 0.0
2018-Apr-11 16:16N 38°42' W 009°10'0 0.0
2018-Apr-11 15:58N 38°42' W 009°10'0 0.0
2018-Apr-11 14:43N 38°42' W 009°10'0 0.0
2018-Apr-11 13:40N 38°42' W 009°10'0 0.0
2018-Apr-11 13:19N 38°42' W 009°10'0 0.0
2018-Apr-11 12:52N 38°42' W 009°10'0 0.0
2018-Apr-11 12:22N 38°42' W 009°10'0 0.0
2018-Apr-11 11:46N 38°42' W 009°10'0 0.0
2018-Apr-11 10:34N 38°42' W 009°10'0 0.0
2018-Apr-11 10:28N 38°42' W 009°10'0 0.0
2018-Apr-11 09:58N 38°42' W 009°10'0 0.0
2018-Apr-11 09:16N 38°42' W 009°10'0 0.0
2018-Apr-11 08:58N 38°42' W 009°10'0 0.0
2018-Apr-11 08:28N 38°42' W 009°10'0 0.0
2018-Apr-11 07:58N 38°42' W 009°10'0 0.0
2018-Apr-11 07:28N 38°42' W 009°10'0 0.0
2018-Apr-11 06:58N 38°42' W 009°10'0 0.0
2018-Apr-11 06:28N 38°42' W 009°10'0 0.0
2018-Apr-11 05:58N 38°42' W 009°10'0 0.0
2018-Apr-11 05:28N 38°42' W 009°10'0 0.0
2018-Apr-11 04:58N 38°42' W 009°10'0 0.0
2018-Apr-11 04:28N 38°42' W 009°10'0 0.0
2018-Apr-11 03:52N 38°42' W 009°10'0 0.0
2018-Apr-11 03:28N 38°42' W 009°10'0 0.0
2018-Apr-11 02:58N 38°42' W 009°10'0 0.0
2018-Apr-11 02:28N 38°42' W 009°10'  

Dump ship's entire track history